Time;durP1;ratioP1;P1;durP2;ratioP2;P2;SDS_P1;SDS_P2;PMS_P1;PMS_P2;Temp;Humidity;BMP_temperature;BMP_pressure;BME280_temperature;BME280_humidity;BME280_pressure;Samples;Min_cycle;Max_cycle;Signal;HPM_P1;HPM_P2
2022/10/22 00:00:49;;;;;;;21.20;13.52;;;12.00;99.90;;;;;;5080809;28;20035;-63
2022/10/22 00:03:15;;;;;;;20.52;12.43;;;12.40;99.90;;;;;;5069142;28;20048;-63
2022/10/22 00:05:40;;;;;;;19.95;12.38;;;11.30;99.90;;;;;;5069689;28;20063;-62
2022/10/22 00:08:06;;;;;;;21.13;12.90;;;11.40;99.90;;;;;;5069209;28;20041;-63
2022/10/22 00:10:31;;;;;;;20.25;12.82;;;12.50;99.90;;;;;;5069353;28;20036;-63
2022/10/22 00:12:57;;;;;;;20.70;12.77;;;12.00;99.90;;;;;;5070124;28;20059;-62
2022/10/22 00:15:23;;;;;;;20.13;13.65;;;12.00;99.90;;;;;;5051419;28;20111;-63
2022/10/22 00:17:48;;;;;;;21.73;12.48;;;11.70;99.90;;;;;;5072352;28;20050;-64
2022/10/22 00:20:14;;;;;;;19.30;12.35;;;12.20;99.90;;;;;;5075330;28;20118;-63
2022/10/22 00:22:40;;;;;;;15.75;11.23;;;11.10;99.90;;;;;;5069009;28;20037;-62
2022/10/22 00:25:06;;;;;;;16.95;10.27;;;11.10;99.90;;;;;;5069544;28;20063;-63
2022/10/22 00:27:32;;;;;;;20.42;12.38;;;11.20;99.90;;;;;;5068900;28;20036;-63
2022/10/22 00:29:57;;;;;;;18.60;11.13;;;11.10;99.90;;;;;;5069414;28;20036;-63
2022/10/22 00:32:23;;;;;;;17.10;11.40;;;11.30;99.90;;;;;;5069628;28;20490;-63
2022/10/22 00:34:48;;;;;;;24.15;13.48;;;11.10;99.90;;;;;;5084511;28;20030;-63
2022/10/22 00:37:14;;;;;;;17.00;11.82;;;10.90;99.90;;;;;;5082144;28;20047;-63
2022/10/22 00:39:40;;;;;;;18.65;11.88;;;10.80;99.90;;;;;;5063044;28;20044;-63
2022/10/22 00:42:05;;;;;;;18.20;11.75;;;10.80;99.90;;;;;;5051503;28;20037;-63
2022/10/22 00:45:01;;;;;;;17.85;10.73;;;11.10;99.90;;;;;;5069208;28;20044;-62
2022/10/22 00:47:53;;;;;;;23.50;13.10;;;11.90;99.90;;;;;;5076905;28;20047;-62
2022/10/22 00:50:55;;;;;;;20.58;12.98;;;11.50;99.90;;;;;;5059329;28;20053;-63
2022/10/22 00:53:38;;;;;;;19.35;12.00;;;10.90;99.90;;;;;;5054546;28;20128;-63
2022/10/22 00:56:04;;;;;;;18.10;11.30;;;11.20;99.90;;;;;;5063363;28;20607;-62
2022/10/22 00:58:35;;;;;;;20.25;12.15;;;11.70;99.90;;;;;;5072149;28;20040;-63
2022/10/22 01:01:02;;;;;;;17.45;10.27;;;11.10;99.90;;;;;;5073328;28;20409;-63
2022/10/22 01:03:28;;;;;;;18.15;11.55;;;;;;;;;;5072468;28;20417;-63
2022/10/22 01:05:58;;;;;;;19.17;11.43;;;;;;;;;;5068378;28;20052;-63
2022/10/22 01:08:43;;;;;;;16.15;11.25;;;11.40;99.90;;;;;;5083250;28;20059;-63
2022/10/22 01:11:25;;;;;;;22.55;13.30;;;10.50;99.90;;;;;;5078195;28;20039;-64
2022/10/22 01:13:57;;;;;;;23.95;14.07;;;;;;;;;;5073899;28;20037;-63
2022/10/22 01:16:36;;;;;;;21.35;13.43;;;10.60;99.90;;;;;;5072431;28;20466;-63
2022/10/22 01:19:37;;;;;;;21.52;12.98;;;10.90;99.90;;;;;;5072055;28;20044;-64
2022/10/22 01:22:26;;;;;;;27.98;15.85;;;10.80;99.90;;;;;;5077612;28;20035;-63
2022/10/22 01:25:11;;;;;;;21.13;13.60;;;11.00;99.90;;;;;;5054547;28;20130;-64
2022/10/22 01:27:58;;;;;;;26.13;14.25;;;10.90;99.90;;;;;;5067929;28;20052;-64
2022/10/22 01:30:24;;;;;;;26.25;14.23;;;10.90;99.90;;;;;;5070769;28;20453;-64
2022/10/22 01:32:54;;;;;;;23.40;13.90;;;11.10;99.90;;;;;;5070918;28;20036;-64
2022/10/22 01:35:41;;;;;;;21.38;12.70;;;;;;;;;;5066643;28;20064;-63
2022/10/22 01:38:10;;;;;;;20.92;13.23;;;;;;;;;;5065499;28;20057;-64
2022/10/22 01:40:36;;;;;;;19.77;11.73;;;11.60;99.90;;;;;;5077313;28;20178;-64
2022/10/22 01:43:06;;;;;;;19.95;11.85;;;11.20;99.90;;;;;;5073240;28;20032;-64
2022/10/22 01:45:43;;;;;;;18.45;12.05;;;11.50;99.90;;;;;;5071291;28;20557;-63
2022/10/22 01:48:34;;;;;;;18.98;12.02;;;;;;;;;;5071137;28;20039;-64
2022/10/22 01:51:19;;;;;;;24.20;14.48;;;11.70;99.90;;;;;;5071774;28;20040;-64
2022/10/22 01:54:13;;;;;;;17.92;12.38;;;11.60;99.90;;;;;;5073238;28;20044;-64
2022/10/22 01:57:14;;;;;;;19.63;12.88;;;11.00;99.90;;;;;;5024524;28;20044;-64
2022/10/22 01:59:49;;;;;;;18.88;12.23;;;11.70;99.90;;;;;;5071401;28;20563;-64
2022/10/22 02:02:35;;;;;;;18.50;12.23;;;11.00;99.90;;;;;;5053671;28;20072;-64
2022/10/22 02:05:10;;;;;;;22.55;13.48;;;11.70;99.90;;;;;;5071523;28;20108;-63
2022/10/22 02:07:41;;;;;;;23.80;14.65;;;12.20;99.90;;;;;;5052124;28;20170;-63
2022/10/22 02:10:08;;;;;;;21.90;12.15;;;11.40;99.90;;;;;;5071567;28;20051;-64
2022/10/22 02:12:35;;;;;;;22.88;13.38;;;12.30;99.90;;;;;;5071518;28;20410;-63
2022/10/22 02:15:02;;;;;;;21.42;13.32;;;12.10;99.90;;;;;;5071138;28;20040;-63
2022/10/22 02:17:32;;;;;;;21.85;13.02;;;12.30;99.90;;;;;;5036826;28;20049;-63
2022/10/22 02:20:00;;;;;;;19.70;11.77;;;;;;;;;;5076777;28;20036;-62
2022/10/22 02:22:27;;;;;;;24.35;14.55;;;12.10;99.90;;;;;;5067829;28;20382;-62
2022/10/22 02:24:53;;;;;;;21.58;12.43;;;11.80;99.90;;;;;;5081999;28;20043;-64
2022/10/22 02:27:30;;;;;;;23.27;14.05;;;12.00;99.90;;;;;;5071909;28;20115;-63
2022/10/22 02:30:06;;;;;;;18.48;10.95;;;12.10;99.90;;;;;;5057382;28;20040;-63
2022/10/22 02:33:10;;;;;;;20.52;12.90;;;12.20;99.90;;;;;;5071524;28;20036;-63
2022/10/22 02:35:39;;;;;;;18.88;12.52;;;12.40;99.90;;;;;;5071589;28;20086;-63
2022/10/22 02:38:06;;;;;;;21.45;12.63;;;12.50;99.90;;;;;;5074461;28;20112;-63
2022/10/22 02:40:32;;;;;;;19.67;11.75;;;11.60;99.90;;;;;;5060005;28;20055;-64
2022/10/22 02:42:58;;;;;;;17.42;10.80;;;11.80;99.90;;;;;;5070972;28;20029;-64
2022/10/22 02:45:24;;;;;;;19.10;11.23;;;11.60;99.90;;;;;;5078802;28;20050;-62
2022/10/22 02:47:49;;;;;;;18.38;11.40;;;12.40;99.90;;;;;;5078615;28;20596;-63
2022/10/22 02:50:15;;;;;;;21.25;12.27;;;12.50;99.90;;;;;;5077327;28;20114;-63
2022/10/22 02:52:41;;;;;;;19.52;11.23;;;12.30;99.90;;;;;;5074199;28;20039;-63
2022/10/22 02:55:07;;;;;;;19.65;12.02;;;12.60;99.90;;;;;;5070622;28;20036;-63
2022/10/22 02:57:33;;;;;;;17.25;10.98;;;12.30;99.90;;;;;;5069970;28;20036;-63
2022/10/22 02:59:59;;;;;;;17.15;10.90;;;12.40;99.90;;;;;;5070625;28;20033;-63
2022/10/22 03:02:24;;;;;;;14.27;10.57;;;12.70;99.90;;;;;;5070697;28;20413;-64
2022/10/22 03:04:50;;;;;;;20.75;10.00;;;12.50;99.90;;;;;;5076901;28;20033;-63
2022/10/22 03:07:15;;;;;;;16.80;9.23;;;12.30;99.90;;;;;;5070286;28;20413;-63
2022/10/22 03:09:41;;;;;;;16.65;10.18;;;12.60;99.90;;;;;;5070459;28;20078;-62
2022/10/22 03:12:07;;;;;;;14.38;9.90;;;12.60;99.90;;;;;;5070462;28;20039;-63
2022/10/22 03:14:34;;;;;;;14.00;9.00;;;12.70;99.90;;;;;;5070272;28;20040;-64
2022/10/22 03:16:59;;;;;;;15.50;9.30;;;13.00;99.90;;;;;;5069875;28;20448;-63
2022/10/22 03:19:25;;;;;;;20.05;9.88;;;12.60;99.90;;;;;;5069871;28;20116;-63
2022/10/22 03:21:56;;;;;;;14.30;9.48;;;;;;;;;;5069256;28;20032;-63
2022/10/22 03:24:32;;;;;;;18.17;9.85;;;12.70;99.90;;;;;;5070325;28;20454;-64
2022/10/22 03:26:58;;;;;;;15.00;8.93;;;12.60;99.90;;;;;;5069267;28;20068;-63
2022/10/22 03:29:25;;;;;;;14.73;9.23;;;;;;;;;;5062822;22;20076;-61
2022/10/22 03:31:52;;;;;;;14.88;9.32;;;;;;;;;;5049544;28;20510;-60
2022/10/22 03:34:17;;;;;;;15.68;9.75;;;12.50;99.90;;;;;;5032303;28;20051;-61
2022/10/22 03:36:44;;;;;;;14.48;7.60;;;12.80;99.90;;;;;;5044206;28;20120;-61
2022/10/22 03:39:11;;;;;;;14.38;8.27;;;;;;;;;;5039478;28;20041;-61
2022/10/22 03:41:37;;;;;;;13.45;8.23;;;13.00;99.90;;;;;;5039875;28;20045;-61
2022/10/22 03:44:04;;;;;;;16.25;8.43;;;;;;;;;;5045668;28;20398;-60
2022/10/22 03:46:29;;;;;;;15.95;8.95;;;13.00;99.90;;;;;;5039443;28;20038;-60
2022/10/22 03:48:55;;;;;;;15.02;8.15;;;12.90;99.90;;;;;;5047609;28;20040;-60
2022/10/22 03:51:21;;;;;;;17.90;9.43;;;12.80;99.90;;;;;;5023122;28;20167;-61
2022/10/22 03:53:46;;;;;;;14.23;8.23;;;12.90;99.90;;;;;;5048479;28;20084;-60
2022/10/22 03:56:13;;;;;;;17.52;8.25;;;;;;;;;;5042669;28;20034;-61
2022/10/22 03:58:40;;;;;;;13.05;7.22;;;13.30;99.90;;;;;;5039946;28;20038;-61
2022/10/22 04:01:11;;;;;;;13.18;7.93;;;12.80;99.90;;;;;;5046211;28;20141;-61
2022/10/22 04:03:38;;;;;;;12.65;7.55;;;;;;;;;;5040026;28;20052;-61
2022/10/22 04:06:07;;;;;;;16.50;7.63;;;12.30;99.90;;;;;;5046554;28;20483;-61
2022/10/22 04:08:33;;;;;;;14.45;7.82;;;;;;;;;;5040235;28;20048;-61
2022/10/22 04:10:59;;;;;;;14.02;8.02;;;12.80;99.90;;;;;;5048999;28;20068;-61
2022/10/22 04:13:25;;;;;;;12.30;8.15;;;12.80;99.90;;;;;;5041986;28;20469;-61
2022/10/22 04:15:51;;;;;;;12.20;6.45;;;12.80;99.90;;;;;;5041261;28;20036;-61
2022/10/22 04:18:18;;;;;;;15.38;8.02;;;12.40;99.90;;;;;;5026384;28;20034;-61
2022/10/22 04:20:43;;;;;;;14.93;7.47;;;12.50;99.90;;;;;;5041380;28;20040;-61
2022/10/22 04:23:09;;;;;;;14.15;7.20;;;13.00;99.90;;;;;;5028136;28;20041;-61
2022/10/22 04:25:35;;;;;;;11.40;7.22;;;12.80;99.90;;;;;;5040929;28;20045;-61
2022/10/22 04:28:01;;;;;;;14.23;8.35;;;12.60;99.90;;;;;;5030714;28;20487;-61
2022/10/22 04:30:26;;;;;;;17.35;7.97;;;12.60;99.90;;;;;;5041790;28;20037;-61
2022/10/22 04:32:52;;;;;;;15.13;8.95;;;12.90;99.90;;;;;;5028063;28;20033;-61
2022/10/22 04:35:18;;;;;;;15.65;7.15;;;12.80;99.90;;;;;;5047775;28;20044;-61
2022/10/22 04:37:43;;;;;;;15.23;8.25;;;12.80;99.90;;;;;;5026610;28;20045;-60
2022/10/22 04:40:10;;;;;;;17.25;7.43;;;;;;;;;;5046198;28;20043;-60
2022/10/22 04:42:36;;;;;;;13.75;7.68;;;;;;;;;;5043013;28;20034;-60
2022/10/22 04:45:01;;;;;;;14.13;7.43;;;13.00;99.90;;;;;;5030876;28;20045;-60
2022/10/22 04:47:27;;;;;;;16.30;7.03;;;12.90;99.90;;;;;;5042577;28;20041;-60
2022/10/22 04:49:53;;;;;;;12.48;6.85;;;12.50;99.90;;;;;;5032896;28;20041;-60
2022/10/22 04:52:18;;;;;;;15.65;8.30;;;13.20;99.90;;;;;;5027921;28;20048;-60
2022/10/22 04:54:44;;;;;;;11.55;7.20;;;12.70;99.90;;;;;;5048723;28;20164;-60
2022/10/22 04:57:09;;;;;;;11.35;6.93;;;12.70;99.90;;;;;;5047022;28;20037;-60
2022/10/22 04:59:35;;;;;;;12.85;6.43;;;;;;;;;;5042118;28;20097;-60
2022/10/22 05:02:01;;;;;;;12.40;6.80;;;;;;;;;;5048493;28;20048;-60
2022/10/22 05:04:27;;;;;;;13.13;6.68;;;12.80;99.90;;;;;;5044337;28;20048;-60
2022/10/22 05:06:53;;;;;;;11.65;7.18;;;13.00;99.90;;;;;;5032010;28;20037;-60
2022/10/22 05:09:19;;;;;;;12.10;6.88;;;12.80;99.90;;;;;;5028438;28;20398;-59
2022/10/22 05:11:47;;;;;;;14.70;6.95;;;12.80;99.90;;;;;;5049523;28;20033;-60
2022/10/22 05:14:16;;;;;;;13.93;7.40;;;12.70;99.90;;;;;;5047298;28;20064;-60
2022/10/22 05:16:42;;;;;;;14.20;7.07;;;12.60;99.90;;;;;;5042613;28;20037;-60
2022/10/22 05:19:12;;;;;;;13.65;7.05;;;12.60;99.90;;;;;;5029621;28;20033;-60
2022/10/22 05:21:38;;;;;;;14.13;6.72;;;;;;;;;;5044070;28;20070;-60
2022/10/22 05:24:04;;;;;;;16.77;7.47;;;12.70;99.90;;;;;;5048989;28;20112;-59
2022/10/22 05:26:29;;;;;;;14.02;7.50;;;12.50;99.90;;;;;;5027918;28;20152;-60
2022/10/22 05:28:55;;;;;;;13.90;7.72;;;12.70;99.90;;;;;;5049207;28;20041;-60
2022/10/22 05:31:21;;;;;;;13.85;7.28;;;12.80;99.90;;;;;;5045978;28;20033;-60
2022/10/22 05:33:47;;;;;;;17.67;7.90;;;12.60;99.90;;;;;;5041132;28;20065;-60
2022/10/22 05:36:14;;;;;;;13.18;7.40;;;;;;;;;;5046446;28;20037;-60
2022/10/22 05:38:40;;;;;;;12.55;7.72;;;12.30;99.90;;;;;;5041310;28;20036;-60
2022/10/22 05:41:13;;;;;;;30.35;8.00;;;12.60;99.90;;;;;;5040558;28;20611;-60
2022/10/22 05:43:39;;;;;;;17.80;8.45;;;12.80;99.90;;;;;;5029106;28;20167;-59
2022/10/22 05:46:08;;;;;;;14.23;7.85;;;12.60;99.90;;;;;;5023744;28;20128;-60
2022/10/22 05:48:34;;;;;;;14.73;7.80;;;;;;;;;;5046446;28;20072;-59
2022/10/22 05:51:04;;;;;;;13.40;8.38;;;;;;;;;;5026751;28;20037;-59
2022/10/22 05:53:31;;;;;;;17.30;8.32;;;;;;;;;;5047395;28;20044;-60
2022/10/22 05:56:04;;;;;;;15.82;7.78;;;;;;;;;;5046495;28;20047;-60
2022/10/22 05:58:31;;;;;;;13.30;7.82;;;12.50;99.90;;;;;;5039493;28;20041;-60
2022/10/22 06:01:30;;;;;;;14.88;7.78;;;12.90;99.90;;;;;;5048013;28;20090;-60
2022/10/22 06:03:58;;;;;;;14.27;7.78;;;12.70;99.90;;;;;;4973864;28;20045;-59
2022/10/22 06:06:24;;;;;;;14.50;7.82;;;;;;;;;;5045840;28;20068;-59
2022/10/22 06:08:51;;;;;;;14.77;7.93;;;;;;;;;;5041652;28;20126;-60
2022/10/22 06:11:18;;;;;;;15.40;6.80;;;;;;;;;;5047622;28;20037;-59
2022/10/22 06:13:44;;;;;;;15.52;8.13;;;;;;;;;;5042393;28;20065;-60
2022/10/22 06:16:11;;;;;;;15.32;7.10;;;;;;;;;;5024722;28;20045;-60
2022/10/22 06:18:36;;;;;;;13.18;6.65;;;12.30;99.90;;;;;;5041753;28;20049;-60
2022/10/22 06:21:09;;;;;;;16.30;6.55;;;;;;;;;;5041544;28;20028;-60
2022/10/22 06:23:36;;;;;;;14.88;7.00;;;;;;;;;;5044581;28;20063;-59
2022/10/22 06:26:03;;;;;;;13.35;7.15;;;12.80;99.90;;;;;;5044208;28;20037;-60
2022/10/22 06:28:29;;;;;;;14.02;7.53;;;;;;;;;;5045249;28;20073;-60
2022/10/22 06:30:57;;;;;;;13.25;6.72;;;13.20;99.90;;;;;;5009173;28;104591;-60
2022/10/22 06:33:23;;;;;;;13.90;6.30;;;;;;;;;;5040345;28;20059;-60
2022/10/22 06:35:50;;;;;;;11.68;6.43;;;;;;;;;;5027935;28;20459;-60
2022/10/22 06:38:16;;;;;;;19.60;7.28;;;;;;;;;;5043794;28;20040;-60
2022/10/22 06:40:43;;;;;;;13.15;7.55;;;;;;;;;;5041532;28;20120;-60
2022/10/22 06:43:13;;;;;;;16.25;7.88;;;;;;;;;;5043139;28;20037;-60
2022/10/22 06:45:39;;;;;;;13.05;6.53;;;12.60;99.90;;;;;;5045623;28;20422;-60
2022/10/22 06:48:06;;;;;;;11.45;6.78;;;12.70;99.90;;;;;;5042997;28;20029;-60
2022/10/22 06:50:33;;;;;;;14.63;6.97;;;;;;;;;;5047040;28;20044;-60
2022/10/22 06:52:58;;;;;;;13.00;6.60;;;12.90;99.90;;;;;;5026227;28;20045;-60
2022/10/22 06:55:24;;;;;;;13.02;6.80;;;12.90;99.90;;;;;;5047616;28;20529;-60
2022/10/22 06:57:50;;;;;;;13.05;6.88;;;12.90;99.90;;;;;;5042090;28;20041;-59
2022/10/22 07:00:16;;;;;;;12.75;6.93;;;;;;;;;;5019354;28;20041;-60
2022/10/22 07:02:41;;;;;;;14.45;7.00;;;13.00;99.90;;;;;;5044089;28;20056;-61
2022/10/22 07:05:07;;;;;;;15.75;7.18;;;12.50;99.90;;;;;;5038961;28;20064;-60
2022/10/22 07:07:33;;;;;;;17.35;6.65;;;13.00;99.90;;;;;;5043842;28;20090;-61
2022/10/22 07:09:59;;;;;;;13.40;6.53;;;12.70;99.90;;;;;;5038727;28;20108;-61
2022/10/22 07:12:25;;;;;;;13.80;6.53;;;;;;;;;;5031559;28;20029;-61
2022/10/22 07:14:51;;;;;;;16.27;6.85;;;13.10;99.90;;;;;;5030964;28;20057;-60
2022/10/22 07:17:16;;;;;;;14.65;8.10;;;13.00;99.90;;;;;;5032853;28;20128;-61
2022/10/22 07:19:42;;;;;;;14.88;6.68;;;13.00;99.90;;;;;;5029838;28;20037;-60
2022/10/22 07:22:08;;;;;;;20.48;7.03;;;;;;;;;;5027124;28;20521;-61
2022/10/22 07:24:34;;;;;;;14.23;6.45;;;13.00;99.90;;;;;;5027902;28;20037;-60
2022/10/22 07:26:59;;;;;;;15.52;6.93;;;13.30;99.90;;;;;;5028373;28;20036;-60
2022/10/22 07:29:25;;;;;;;14.23;7.38;;;13.10;99.90;;;;;;5027714;28;20491;-61
2022/10/22 07:31:51;;;;;;;12.93;6.53;;;13.00;99.90;;;;;;5027636;28;20029;-61
2022/10/22 07:34:16;;;;;;;12.98;6.32;;;13.50;99.90;;;;;;5032744;28;20110;-61
2022/10/22 07:36:42;;;;;;;13.48;5.65;;;13.10;99.90;;;;;;5033848;28;20099;-61
2022/10/22 07:39:08;;;;;;;12.02;7.00;;;13.10;99.90;;;;;;5032658;28;20045;-61
2022/10/22 07:41:33;;;;;;;11.85;5.78;;;13.20;99.90;;;;;;5031738;28;20073;-60
2022/10/22 07:44:06;;;;;;;14.23;6.18;;;12.70;99.90;;;;;;5031675;28;20037;-59
2022/10/22 07:46:35;;;;;;;15.05;6.15;;;;;;;;;;5023242;28;20557;-60
2022/10/22 07:49:01;;;;;;;12.77;5.85;;;13.20;99.90;;;;;;5032890;28;20049;-60
2022/10/22 07:51:26;;;;;;;14.85;6.22;;;13.20;99.90;;;;;;5032024;28;20116;-60
2022/10/22 07:53:56;;;;;;;16.05;6.78;;;;;;;;;;5034317;28;20517;-60
2022/10/22 07:56:21;;;;;;;20.27;6.40;;;13.20;99.90;;;;;;5032979;28;20121;-61
2022/10/22 07:58:47;;;;;;;13.82;5.70;;;13.40;99.90;;;;;;5016262;28;21400;-61
2022/10/22 08:01:12;;;;;;;12.82;6.45;;;14.00;99.90;;;;;;5013503;28;20037;-60
2022/10/22 08:03:38;;;;;;;14.90;5.70;;;13.90;99.90;;;;;;5033555;28;20127;-60
2022/10/22 08:06:04;;;;;;;11.75;6.32;;;13.60;99.90;;;;;;5033016;28;20045;-60
2022/10/22 08:08:29;;;;;;;12.15;5.97;;;13.60;99.90;;;;;;5031031;28;20051;-60
2022/10/22 08:10:57;;;;;;;14.25;6.65;;;;;;;;;;5037982;28;20140;-60
2022/10/22 08:13:23;;;;;;;10.45;5.60;;;13.70;99.90;;;;;;5035189;28;20116;-60
2022/10/22 08:15:49;;;;;;;14.00;6.20;;;;;;;;;;5014702;28;20136;-60
2022/10/22 08:18:15;;;;;;;13.65;5.80;;;;;;;;;;5026703;28;20514;-60
2022/10/22 08:20:41;;;;;;;12.75;6.00;;;;;;;;;;5035178;28;20411;-59
2022/10/22 08:23:07;;;;;;;15.07;5.45;;;14.30;99.90;;;;;;5028134;28;20044;-61
2022/10/22 08:25:33;;;;;;;12.73;5.20;;;14.40;99.90;;;;;;5030526;28;20030;-60
2022/10/22 08:27:59;;;;;;;12.35;5.53;;;14.60;99.90;;;;;;5031490;28;20479;-59
2022/10/22 08:30:26;;;;;;;15.35;4.43;;;15.00;99.90;;;;;;5013305;28;20050;-60
2022/10/22 08:32:52;;;;;;;13.13;4.28;;;14.70;99.90;;;;;;5031632;28;20152;-61
2022/10/22 08:35:17;;;;;;;9.13;4.22;;;14.70;99.90;;;;;;5034588;28;20450;-60
2022/10/22 08:37:43;;;;;;;10.88;4.07;;;14.80;99.90;;;;;;5041769;28;20046;-60
2022/10/22 08:40:19;;;;;;;13.30;4.85;;;15.20;99.90;;;;;;5043050;28;20033;-60
2022/10/22 08:42:58;;;;;;;11.52;4.15;;;;;;;;;;5043420;28;20042;-61
2022/10/22 08:45:34;;;;;;;12.68;4.20;;;15.20;99.90;;;;;;5048376;28;20410;-61
2022/10/22 08:48:09;;;;;;;10.35;4.30;;;15.20;99.90;;;;;;5043723;28;20040;-61
2022/10/22 08:50:47;;;;;;;12.40;5.05;;;15.40;99.90;;;;;;5048997;28;20041;-60
2022/10/22 08:53:16;;;;;;;12.20;3.92;;;15.20;99.90;;;;;;5024132;28;20040;-61
2022/10/22 08:55:43;;;;;;;12.93;4.03;;;15.20;99.90;;;;;;5049877;28;20036;-61
2022/10/22 08:58:50;;;;;;;11.48;3.55;;;15.40;99.90;;;;;;5041472;28;20392;-61
2022/10/22 09:01:33;;;;;;;12.02;3.88;;;;;;;;;;5028909;28;20110;-61
2022/10/22 09:04:36;;;;;;;13.15;4.35;;;15.80;99.90;;;;;;5030349;28;20041;-61
2022/10/22 09:07:02;;;;;;;10.23;3.63;;;15.20;99.90;;;;;;5017086;28;20033;-61
2022/10/22 09:09:38;;;;;;;10.68;4.22;;;15.60;99.90;;;;;;5045490;28;20048;-60
2022/10/22 09:12:04;;;;;;;7.85;3.20;;;15.50;99.90;;;;;;5049626;28;20033;-60
2022/10/22 09:14:30;;;;;;;13.13;4.07;;;15.50;99.90;;;;;;5047129;28;20064;-60
2022/10/22 09:17:10;;;;;;;11.18;3.40;;;;;;;;;;5033442;28;20041;-61
2022/10/22 09:19:44;;;;;;;13.18;4.63;;;15.90;99.90;;;;;;5048021;28;20452;-61
2022/10/22 09:22:20;;;;;;;12.68;3.63;;;;;;;;;;5039500;28;20510;-61
2022/10/22 09:24:51;;;;;;;8.13;3.03;;;15.20;99.90;;;;;;5047901;28;20125;-61
2022/10/22 09:27:19;;;;;;;11.65;3.80;;;15.40;99.90;;;;;;5046138;28;20466;-60
2022/10/22 09:32:14;;;;;;;12.23;3.40;;;15.60;99.90;;;;;;5050643;28;20053;-65
2022/10/22 09:34:43;;;;;;;15.32;4.07;;;15.20;99.90;;;;;;5041506;28;20045;-65
2022/10/22 09:37:10;;;;;;;10.73;3.42;;;15.50;99.90;;;;;;5040440;28;20045;-64
2022/10/22 09:39:43;;;;;;;12.30;3.30;;;15.30;99.90;;;;;;5031418;28;20402;-64
2022/10/22 09:42:13;;;;;;;13.32;4.32;;;16.10;99.90;;;;;;5004942;28;20041;-64
2022/10/22 09:44:38;;;;;;;11.10;3.60;;;15.30;99.90;;;;;;5024909;28;20409;-64
2022/10/22 09:47:06;;;;;;;13.70;4.85;;;16.00;99.90;;;;;;5014557;28;20037;-64
2022/10/22 09:49:34;;;;;;;10.00;4.65;;;15.90;99.90;;;;;;5028413;28;20056;-64
2022/10/22 09:52:01;;;;;;;12.25;3.40;;;15.10;99.90;;;;;;5028284;28;20375;-65
2022/10/22 09:54:40;;;;;;;13.70;3.88;;;16.10;99.90;;;;;;5028152;28;20060;-65
2022/10/22 09:57:15;;;;;;;13.00;4.25;;;15.60;99.90;;;;;;5024494;28;20068;-65
2022/10/22 09:59:42;;;;;;;15.60;4.47;;;15.50;99.90;;;;;;5030199;28;20033;-64
2022/10/22 10:02:08;;;;;;;12.93;4.45;;;15.80;99.90;;;;;;5039049;28;20072;-65
2022/10/22 10:04:39;;;;;;;12.02;4.80;;;16.10;99.90;;;;;;5037928;28;20080;-64
2022/10/22 10:07:14;;;;;;;10.05;4.00;;;;;;;;;;5039935;28;20069;-65
2022/10/22 10:09:39;;;;;;;13.43;4.53;;;14.90;99.90;;;;;;5019975;28;20034;-64
2022/10/22 10:12:12;;;;;;;11.50;4.57;;;15.90;99.90;;;;;;5032042;28;20037;-65
2022/10/22 10:14:55;;;;;;;14.43;5.13;;;15.40;99.90;;;;;;5012603;28;20134;-64
2022/10/22 10:17:28;;;;;;;12.43;4.47;;;15.20;99.90;;;;;;5029999;28;20048;-64
2022/10/22 10:20:02;;;;;;;12.98;4.70;;;15.40;99.90;;;;;;5028643;28;20043;-65
2022/10/22 10:22:53;;;;;;;12.05;4.72;;;15.90;99.90;;;;;;5031957;28;20045;-65
2022/10/22 10:25:38;;;;;;;11.35;4.50;;;16.20;99.90;;;;;;5030934;28;20037;-64
2022/10/22 10:28:13;;;;;;;10.30;3.97;;;15.50;99.90;;;;;;5036879;28;20036;-65
2022/10/22 10:31:12;;;;;;;14.07;4.72;;;16.40;99.90;;;;;;5033215;28;20549;-65
2022/10/22 10:33:53;;;;;;;10.38;3.83;;;16.60;99.90;;;;;;5016182;28;20741;-65
2022/10/22 10:36:40;;;;;;;8.52;3.38;;;16.50;99.90;;;;;;5036886;28;20041;-65
2022/10/22 10:39:16;;;;;;;7.03;3.40;;;16.30;99.90;;;;;;5024464;28;20041;-65
2022/10/22 10:41:55;;;;;;;12.48;3.97;;;16.20;99.90;;;;;;5030281;28;20041;-65
2022/10/22 10:44:50;;;;;;;11.15;3.97;;;16.00;99.90;;;;;;5033294;28;20037;-64
2022/10/22 10:47:31;;;;;;;12.68;4.75;;;15.90;99.90;;;;;;5029845;28;20038;-65
2022/10/22 10:50:50;;;;;;;12.95;5.88;;;15.90;99.90;;;;;;5020111;28;20044;-65
2022/10/22 10:53:20;;;;;;;12.48;5.88;;;15.80;99.90;;;;;;4962799;28;20049;-65
2022/10/22 10:56:08;;;;;;;12.95;6.75;;;14.80;99.90;;;;;;5029635;28;20037;-65
2022/10/22 10:58:53;;;;;;;14.65;7.35;;;15.10;99.90;;;;;;5008021;28;20053;-65
2022/10/22 11:01:31;;;;;;;12.65;7.30;;;15.50;99.90;;;;;;5029796;28;20395;-65
2022/10/22 11:03:59;;;;;;;14.50;8.05;;;14.70;99.90;;;;;;5028191;28;20475;-65
2022/10/22 11:06:26;;;;;;;18.50;8.90;;;14.70;99.90;;;;;;5027233;28;20037;-65
2022/10/22 11:08:56;;;;;;;20.80;8.02;;;14.80;99.90;;;;;;5029351;28;20041;-66
2022/10/22 11:11:34;;;;;;;17.60;8.30;;;15.00;99.90;;;;;;5021472;28;20446;-64
2022/10/22 11:14:05;;;;;;;15.07;9.02;;;15.00;99.90;;;;;;5026726;28;20398;-65
2022/10/22 11:17:01;;;;;;;23.83;9.50;;;15.10;99.90;;;;;;5024421;28;20042;-65
2022/10/22 11:19:35;;;;;;;12.77;7.45;;;15.10;99.90;;;;;;5025296;28;20051;-65
2022/10/22 11:22:45;;;;;;;19.13;9.07;;;15.10;99.90;;;;;;5027118;28;20120;-65
2022/10/22 11:25:16;;;;;;;16.90;8.07;;;14.60;99.90;;;;;;4988176;28;20045;-65
2022/10/22 11:27:54;;;;;;;18.85;8.05;;;15.60;99.90;;;;;;5029814;28;20098;-65
2022/10/22 11:30:22;;;;;;;17.42;8.95;;;14.80;99.90;;;;;;5027900;28;20442;-66
2022/10/22 11:33:01;;;;;;;14.00;6.45;;;15.70;99.90;;;;;;5009773;28;20038;-65
2022/10/22 11:35:30;;;;;;;12.93;5.78;;;;;;;;;;5024520;28;20568;-65
2022/10/22 11:37:57;;;;;;;19.13;6.90;;;15.70;99.90;;;;;;5006166;28;20042;-65
2022/10/22 11:40:34;;;;;;;16.17;6.15;;;15.20;99.90;;;;;;5029622;28;20170;-66
2022/10/22 11:43:08;;;;;;;16.27;7.70;;;14.90;99.90;;;;;;5022979;28;20379;-65
2022/10/22 11:45:40;;;;;;;17.02;7.53;;;15.40;99.90;;;;;;5030038;28;20046;-66
2022/10/22 11:48:16;;;;;;;14.48;7.15;;;15.20;99.90;;;;;;5023293;28;20132;-66
2022/10/22 11:51:00;;;;;;;15.75;7.88;;;14.90;99.90;;;;;;5040235;28;20081;-66
2022/10/22 11:53:29;;;;;;;17.27;7.57;;;14.30;99.90;;;;;;5026474;28;20093;-66
2022/10/22 11:55:58;;;;;;;16.73;7.65;;;15.00;99.90;;;;;;5029745;28;20075;-66
2022/10/22 11:58:27;;;;;;;13.27;6.68;;;15.70;99.90;;;;;;5038076;28;20394;-65
2022/10/22 12:00:53;;;;;;;17.48;6.85;;;14.90;99.90;;;;;;5045773;28;20040;-65
2022/10/22 12:03:31;;;;;;;15.35;7.43;;;15.40;99.90;;;;;;5021695;28;20502;-65
2022/10/22 12:06:12;;;;;;;13.20;6.57;;;15.40;99.90;;;;;;5036249;28;20033;-66
2022/10/22 12:08:55;;;;;;;16.58;6.25;;;15.90;99.90;;;;;;5027629;28;20085;-65
2022/10/22 12:11:21;;;;;;;14.65;6.25;;;;;;;;;;5029771;28;20040;-66
2022/10/22 12:14:23;;;;;;;15.93;5.63;;;15.90;99.90;;;;;;5029735;28;20734;-66
2022/10/22 12:16:56;;;;;;;17.90;5.05;;;16.10;99.90;;;;;;5035739;28;20051;-65
2022/10/22 12:19:21;;;;;;;11.70;4.43;;;15.50;99.90;;;;;;5037367;28;20045;-65
2022/10/22 12:21:53;;;;;;;9.60;3.85;;;16.00;99.90;;;;;;5031603;28;20137;-65
2022/10/22 12:24:22;;;;;;;12.10;3.58;;;15.70;99.90;;;;;;5009875;28;20037;-65
2022/10/22 12:26:51;;;;;;;12.93;3.40;;;16.00;99.90;;;;;;5010907;28;20157;-65
2022/10/22 12:29:21;;;;;;;10.90;2.92;;;16.10;99.90;;;;;;5034948;28;20065;-65
2022/10/22 12:31:47;;;;;;;11.73;2.97;;;16.20;99.90;;;;;;5026815;28;20057;-64
2022/10/22 12:34:15;;;;;;;11.75;2.92;;;16.70;99.90;;;;;;5025961;28;20083;-65
2022/10/22 12:36:41;;;;;;;9.93;2.28;;;16.60;99.90;;;;;;5020848;28;20044;-64
2022/10/22 12:39:19;;;;;;;10.27;2.30;;;16.00;99.90;;;;;;5021661;28;20466;-65
2022/10/22 12:41:45;;;;;;;9.15;2.90;;;16.50;99.90;;;;;;5022667;28;20248;-65
2022/10/22 12:44:13;;;;;;;9.25;2.70;;;16.00;99.90;;;;;;5027491;28;20558;-65
2022/10/22 12:46:40;;;;;;;12.90;2.83;;;16.80;99.90;;;;;;5009939;28;20045;-65
2022/10/22 12:49:16;;;;;;;8.55;2.10;;;16.50;99.90;;;;;;5026511;28;20037;-63
2022/10/22 12:51:43;;;;;;;7.38;2.67;;;16.30;99.90;;;;;;5025720;28;20038;-62
2022/10/22 12:54:26;;;;;;;12.95;2.13;;;16.00;99.90;;;;;;5013126;28;20037;-63
2022/10/22 12:56:54;;;;;;;8.07;1.90;;;16.50;99.90;;;;;;5032903;28;20039;-62
2022/10/22 12:59:25;;;;;;;7.95;2.00;;;16.40;99.90;;;;;;5016485;28;20042;-62
2022/10/22 13:01:52;;;;;;;8.05;2.13;;;17.10;99.90;;;;;;5033259;28;20037;-62
2022/10/22 13:04:25;;;;;;;12.40;1.95;;;17.10;99.90;;;;;;5032075;28;20037;-63
2022/10/22 13:07:15;;;;;;;9.60;2.10;;;17.30;99.90;;;;;;5026313;28;20075;-63
2022/10/22 13:09:43;;;;;;;8.43;1.85;;;18.30;99.90;;;;;;5029546;28;20072;-63
2022/10/22 13:12:15;;;;;;;8.00;1.60;;;18.80;99.90;;;;;;5032693;28;20038;-63
2022/10/22 13:14:42;;;;;;;9.60;2.28;;;19.70;44.10;;;;;;5035526;28;20108;-62